This is the latest recevied weather packets stored in our database for station/object IN3MWE-10. If no packets are shown the sender has not sent any weather packets the latest 10 day(s).
| Time | Temp. | Humidity | Pressure | Rain* | Wind** | Luminosity | Snow |
|---|---|---|---|---|---|---|---|
| 1777632619 | 27.78° C | 20% | 988.5 hPa | - | - | - | - |
| 1777631718 | 25.56° C | 24% | 988.9 hPa | - | - | - | - |
| 1777630818 | 23.33° C | 27% | 989.1 hPa | - | - | - | - |
| 1777629918 | 22.78° C | 28% | 989.4 hPa | - | - | - | - |
| 1777629018 | 24.44° C | 26% | 989.5 hPa | - | - | - | - |
| 1777628118 | 21.11° C | 30% | 989.8 hPa | - | - | - | - |
| 1777627218 | 23.89° C | 26% | 989.8 hPa | - | - | - | - |
| 1777626317 | 23.33° C | 26% | 990.1 hPa | - | - | - | - |
| 1777625417 | 21.67° C | 31% | 990.4 hPa | - | - | - | - |
| 1777624517 | 20° C | 33% | 990.4 hPa | - | - | - | - |
| 1777623617 | 18.33° C | 36% | 990.6 hPa | - | - | - | - |
| 1777622717 | 20° C | 31% | 990.6 hPa | - | - | - | - |
| 1777621817 | 15.56° C | 43% | 990.8 hPa | - | - | - | - |
| 1777620917 | 14.44° C | 43% | 990.9 hPa | - | - | - | - |
| 1777620016 | 14.44° C | 48% | 991 hPa | - | - | - | - |
| 1777619116 | 13.89° C | 49% | 991.2 hPa | - | - | - | - |
| 1777618216 | 13.33° C | 55% | 991.3 hPa | - | - | - | - |
| 1777617316 | 12.22° C | 61% | 991.3 hPa | - | - | - | - |
| 1777616416 | 11.67° C | 58% | 991.2 hPa | - | - | - | - |
| 1777615515 | 12.78° C | 55% | 991.1 hPa | - | - | - | - |
| 1777614615 | 13.33° C | 55% | 991.1 hPa | - | - | - | - |
| 1777613715 | 12.78° C | 55% | 990.9 hPa | - | - | - | - |
| 1777612814 | 12.22° C | 61% | 990.9 hPa | - | - | - | - |
| 1777611914 | 12.22° C | 63% | 990.8 hPa | - | - | - | - |
| 1777611014 | 11.67° C | 63% | 990.8 hPa | - | - | - | - |
* Rain since midnight (hover to see other rain measurements)
** Current wind speed in m/s (hover to see current wind gust speed)